createdAt,value
2023-11-18T00:00:59.791Z,1.9
2023-11-18T00:05:42.187Z,1.8
2023-11-18T00:22:32.330Z,1.7
2023-11-18T00:27:19.642Z,1.7
2023-11-18T00:33:29.237Z,1.7
2023-11-18T00:37:31.527Z,1.6
2023-11-18T00:43:02.860Z,1.6
2023-11-18T00:48:29.320Z,1.6
2023-11-18T00:58:22.031Z,1.5
2023-11-18T01:03:03.442Z,1.4
2023-11-18T01:18:23.541Z,1.4
2023-11-18T01:23:53.901Z,1.4
2023-11-18T01:41:49.003Z,1.6
2023-11-18T01:46:56.395Z,1.6
2023-11-18T01:52:26.828Z,1.7
2023-11-18T01:57:48.367Z,1.6
2023-11-18T02:02:34.893Z,1.5
2023-11-18T02:07:22.036Z,1.4
2023-11-18T02:12:52.450Z,1.4
2023-11-18T02:17:34.851Z,1.3
2023-11-18T02:22:41.131Z,1.3
2023-11-18T02:32:53.941Z,1.2
2023-11-18T02:38:00.321Z,1.2
2023-11-18T02:43:06.698Z,1.3
2023-11-18T02:48:13.113Z,1.3
2023-11-18T02:53:23.578Z,1.3
2023-11-18T02:58:54.088Z,1.3
2023-11-18T03:03:56.491Z,1.3
2023-11-18T03:09:32.912Z,1.3
2023-11-18T03:13:45.200Z,1.3
2023-11-18T03:18:51.552Z,1.3
2023-11-18T03:23:57.959Z,1.4
2023-11-18T03:29:04.350Z,1.4
2023-11-18T03:34:10.731Z,1.4
2023-11-18T03:39:17.082Z,1.4
2023-11-18T03:44:23.430Z,1.4
2023-11-18T03:49:49.906Z,1.4
2023-11-18T03:54:56.254Z,1.4
2023-11-18T03:59:42.572Z,1.4
2023-11-18T04:10:19.004Z,1.3
2023-11-18T04:15:05.538Z,1.3
2023-11-18T04:20:51.997Z,1.3
2023-11-18T04:29:15.940Z,1.3
2023-11-18T04:30:26.936Z,1.2
2023-11-18T04:35:33.370Z,1.2
2023-11-18T04:41:35.879Z,1.1
2023-11-18T04:46:10.196Z,1.1
2023-11-18T04:51:45.737Z,1.1
2023-11-18T05:06:31.752Z,1.0
2023-11-18T05:11:42.103Z,1.0
2023-11-18T05:16:24.431Z,1.0
2023-11-18T05:21:54.897Z,1.0
2023-11-18T05:26:57.230Z,1.0
2023-11-18T05:32:03.705Z,1.1
2023-11-18T05:37:35.332Z,1.0
2023-11-18T05:47:50.306Z,1.0
2023-11-18T05:51:18.718Z,1.0
2023-11-18T05:52:32.629Z,1.0
2023-11-18T05:58:03.089Z,1.1
2023-11-18T06:02:25.473Z,1.1
2023-11-18T06:07:31.740Z,1.1
2023-11-18T06:13:02.175Z,1.1
2023-11-18T06:18:08.629Z,1.1
2023-11-18T06:22:50.923Z,1.2
2023-11-18T06:27:57.246Z,1.2
2023-11-18T06:33:27.952Z,1.2
2023-11-18T06:43:16.604Z,1.3
2023-11-18T06:53:29.438Z,1.4
2023-11-18T06:58:35.926Z,1.4
2023-11-18T07:03:42.353Z,1.4
2023-11-18T07:09:16.771Z,1.4
2023-11-18T07:13:55.132Z,1.5
2023-11-18T07:19:22.268Z,1.5
2023-11-18T07:24:47.866Z,1.5
2023-11-18T07:29:14.223Z,1.6
2023-11-18T07:34:20.540Z,1.6
2023-11-18T07:40:10.970Z,1.6
2023-11-18T07:44:57.290Z,1.7
2023-11-18T07:50:03.712Z,1.7
2023-11-18T07:55:06.039Z,1.8
2023-11-18T07:59:52.417Z,1.8
2023-11-18T08:05:37.814Z,1.9
2023-11-18T08:10:05.646Z,2.0
2023-11-18T08:16:15.746Z,2.1
2023-11-18T08:20:41.890Z,2.2
2023-11-18T08:26:31.316Z,2.3
2023-11-18T08:30:29.608Z,2.4
2023-11-18T08:35:37.023Z,2.5
2023-11-18T08:46:48.886Z,2.7
2023-11-18T08:51:52.362Z,2.7
2023-11-18T08:56:38.683Z,2.8
2023-11-18T09:02:09.225Z,2.9
2023-11-18T09:07:11.638Z,2.9
2023-11-18T09:11:57.958Z,3.0
2023-11-18T09:17:04.381Z,3.0
2023-11-18T09:22:10.720Z,3.0
2023-11-18T09:27:41.171Z,3.1
2023-11-18T09:32:23.665Z,3.2
2023-11-18T09:37:29.932Z,3.2
2023-11-18T09:43:00.389Z,3.4
2023-11-18T09:57:56.984Z,3.7
2023-11-18T10:03:26.004Z,3.8
2023-11-18T10:08:28.280Z,3.8
2023-11-18T10:13:48.715Z,4.0
2023-11-18T10:19:35.190Z,4.0
2023-11-18T10:24:01.541Z,4.1
2023-11-18T10:29:08.996Z,4.2
2023-11-18T10:34:15.360Z,4.2
2023-11-18T10:44:28.107Z,4.3
2023-11-18T10:49:34.394Z,4.4
2023-11-18T10:54:40.835Z,4.4
2023-11-18T10:59:47.239Z,4.4
2023-11-18T11:05:32.730Z,4.4
2023-11-18T11:09:48.946Z,4.5
2023-11-18T11:15:30.364Z,4.5
2023-11-18T11:20:32.838Z,4.6
2023-11-18T11:25:19.164Z,4.7
2023-11-18T11:30:25.504Z,4.7
2023-11-18T11:35:32.036Z,4.7
2023-11-18T11:40:38.285Z,4.8
2023-11-18T11:45:44.660Z,4.8
2023-11-18T11:51:15.128Z,4.9
2023-11-18T11:55:57.464Z,4.9
2023-11-18T12:01:23.849Z,5.0
2023-11-18T12:07:12.469Z,5.0
2023-11-18T12:11:16.775Z,5.0
2023-11-18T12:16:43.140Z,5.0
2023-11-18T12:21:33.489Z,5.0
2023-11-18T12:37:12.846Z,5.1
2023-11-18T12:41:55.215Z,5.1
2023-11-18T12:47:25.712Z,5.1
2023-11-18T12:52:07.947Z,5.1
2023-11-18T12:57:04.325Z,5.1
2023-11-18T13:02:21.559Z,5.2
2023-11-18T13:07:27.060Z,5.2
2023-11-18T13:12:33.497Z,5.2
2023-11-18T13:17:39.862Z,5.2
2023-11-18T13:22:48.594Z,5.2
2023-11-18T13:27:52.632Z,5.3
2023-11-18T13:32:59.063Z,5.3
2023-11-18T13:38:05.445Z,5.3
2023-11-18T13:43:11.809Z,5.3
2023-11-18T13:48:57.234Z,5.4
2023-11-18T13:53:23.589Z,5.4
2023-11-18T13:58:30.935Z,5.4
2023-11-18T14:03:37.340Z,5.5
2023-11-18T14:09:07.753Z,5.5
2023-11-18T14:13:50.080Z,5.6
2023-11-18T14:18:56.425Z,5.6
2023-11-18T14:24:03.037Z,5.6
2023-11-18T14:29:09.470Z,5.6
2023-11-18T14:34:35.838Z,5.6
2023-11-18T14:39:46.203Z,5.7
2023-11-18T14:44:28.734Z,5.7
2023-11-18T14:49:35.072Z,5.7
2023-11-18T14:54:41.480Z,5.8
2023-11-18T15:04:54.255Z,5.8
2023-11-18T15:10:00.634Z,5.8
2023-11-18T15:15:06.968Z,5.8
2023-11-18T15:20:37.446Z,5.9
2023-11-18T15:30:26.212Z,5.9
2023-11-18T15:35:56.822Z,5.9
2023-11-18T15:40:40.472Z,6.0
2023-11-18T15:46:06.992Z,6.0
2023-11-18T15:50:53.258Z,6.0
2023-11-18T15:55:59.745Z,6.0
2023-11-18T16:01:06.117Z,6.0
2023-11-18T16:06:32.578Z,6.0
2023-11-18T16:16:45.389Z,6.1
2023-11-18T16:21:31.769Z,6.1
2023-11-18T16:26:38.185Z,6.1
2023-11-18T16:31:44.523Z,6.1
2023-11-18T16:36:50.917Z,6.1
2023-11-18T16:47:03.851Z,6.1
2023-11-18T16:52:34.324Z,6.1
2023-11-18T16:57:16.811Z,6.1
2023-11-18T17:02:23.325Z,6.1
2023-11-18T17:07:29.614Z,6.1
2023-11-18T17:13:00.132Z,6.1
2023-11-18T17:23:13.095Z,6.2
2023-11-18T17:27:55.419Z,6.2
2023-11-18T17:33:27.230Z,6.2
2023-11-18T17:38:52.278Z,6.2
2023-11-18T17:43:14.613Z,6.2
2023-11-18T17:48:35.073Z,6.2
2023-11-18T17:54:45.580Z,6.2
2023-11-18T17:59:28.886Z,6.2
2023-11-18T18:04:05.309Z,6.2
2023-11-18T18:09:45.852Z,6.2
2023-11-18T18:14:52.238Z,6.2
2023-11-18T18:19:34.869Z,6.2
2023-11-18T18:24:41.295Z,6.2
2023-11-18T18:29:37.665Z,6.3
2023-11-18T18:34:54.120Z,6.3
2023-11-18T18:45:30.953Z,6.3
2023-11-18T18:55:18.745Z,6.3
2023-11-18T19:00:25.141Z,6.3
2023-11-18T19:05:32.577Z,6.3
2023-11-18T19:11:18.025Z,6.4
2023-11-18T19:21:31.723Z,6.4
2023-11-18T19:26:58.185Z,6.4
2023-11-18T19:32:42.786Z,6.5
2023-11-18T19:37:46.193Z,6.5
2023-11-18T19:42:32.721Z,6.5
2023-11-18T19:47:39.188Z,6.6
2023-11-18T19:57:51.923Z,6.6
2023-11-18T20:03:18.401Z,6.7
2023-11-18T20:08:04.721Z,6.7
2023-11-18T20:13:11.186Z,6.7
2023-11-18T20:18:44.687Z,6.8
2023-11-18T20:24:17.185Z,6.9
2023-11-18T20:29:25.392Z,6.9
2023-11-18T20:39:38.340Z,7.0
2023-11-18T20:44:44.743Z,7.1
2023-11-18T20:54:32.209Z,7.2
2023-11-18T20:54:56.718Z,7.2
2023-11-18T21:00:03.070Z,7.3
2023-11-18T21:05:10.101Z,7.4
2023-11-18T21:10:17.453Z,7.4
2023-11-18T21:15:23.321Z,7.5
2023-11-18T21:20:19.790Z,7.6
2023-11-18T21:25:36.200Z,7.6
2023-11-18T21:31:06.730Z,7.7
2023-11-18T21:35:49.025Z,7.8
2023-11-18T21:41:23.551Z,7.9
2023-11-18T21:46:01.867Z,7.9
2023-11-18T21:51:08.347Z,8.0
2023-11-18T21:56:34.903Z,8.0
2023-11-18T22:01:21.219Z,8.1
2023-11-18T22:06:27.604Z,8.2
2023-11-18T22:11:54.017Z,8.2
2023-11-18T22:16:40.482Z,8.3
2023-11-18T22:22:05.878Z,8.4
2023-11-18T22:26:55.545Z,8.4
2023-11-18T22:37:06.198Z,8.6
2023-11-18T22:42:32.642Z,8.6
2023-11-18T22:47:19.007Z,8.7
2023-11-18T22:53:10.442Z,8.7
2023-11-18T22:57:31.711Z,8.8
2023-11-18T23:02:38.259Z,8.8
2023-11-18T23:07:44.507Z,8.9
2023-11-18T23:12:50.888Z,8.9
2023-11-18T23:18:21.648Z,9.0
2023-11-18T23:23:03.848Z,9.1
2023-11-18T23:28:10.272Z,9.1
2023-11-18T23:33:40.654Z,9.2
2023-11-18T23:38:21.976Z,9.2
2023-11-18T23:43:53.813Z,9.3
2023-11-18T23:49:00.089Z,9.3
2023-11-18T23:54:02.623Z,9.4
2023-11-18T23:58:48.951Z,9.4
